createdAt,value
2023-03-22T00:01:43.674Z,30.00
2023-03-22T00:04:11.920Z,30.70
2023-03-22T00:06:40.251Z,30.50
2023-03-22T00:09:08.059Z,32.20
2023-03-22T00:11:35.838Z,31.50
2023-03-22T00:14:03.664Z,32.80
2023-03-22T00:16:31.537Z,33.60
2023-03-22T00:18:59.423Z,32.90
2023-03-22T00:21:27.234Z,32.70
2023-03-22T00:23:55.055Z,30.40
2023-03-22T00:26:22.932Z,29.70
2023-03-22T00:28:50.885Z,32.00
2023-03-22T00:31:19.999Z,30.70
2023-03-22T00:33:47.859Z,30.90
2023-03-22T00:36:15.686Z,32.10
2023-03-22T00:38:44.519Z,30.30
2023-03-22T00:41:19.419Z,29.20
2023-03-22T00:43:48.698Z,29.80
2023-03-22T00:46:19.295Z,31.30
2023-03-22T00:48:48.502Z,29.40
2023-03-22T00:51:17.061Z,28.90
2023-03-22T00:53:45.468Z,26.30
2023-03-22T00:56:14.368Z,27.90
2023-03-22T00:58:43.085Z,26.40
2023-03-22T01:01:14.629Z,26.00
2023-03-22T01:03:43.958Z,24.60
2023-03-22T01:06:12.111Z,25.70
2023-03-22T01:08:40.447Z,26.20
2023-03-22T01:11:09.426Z,25.40
2023-03-22T01:13:38.566Z,26.50
2023-03-22T01:16:07.550Z,26.30
2023-03-22T01:18:36.444Z,24.10
2023-03-22T01:21:04.640Z,26.50
2023-03-22T01:23:32.923Z,25.50
2023-03-22T01:26:01.521Z,25.80
2023-03-22T01:28:30.275Z,25.80
2023-03-22T01:31:01.704Z,28.10
2023-03-22T01:33:30.195Z,26.70
2023-03-22T01:35:58.185Z,27.60
2023-03-22T01:38:26.240Z,28.40
2023-03-22T01:40:54.018Z,27.40
2023-03-22T01:43:21.925Z,27.70
2023-03-22T01:45:51.605Z,27.80
2023-03-22T01:48:36.453Z,28.50
2023-03-22T01:51:06.531Z,29.90
2023-03-22T01:53:41.123Z,31.50
2023-03-22T01:56:10.815Z,30.10
2023-03-22T01:58:40.627Z,26.80
2023-03-22T02:01:09.980Z,24.70
2023-03-22T02:03:48.800Z,25.30
2023-03-22T02:06:18.592Z,24.30
2023-03-22T02:08:46.933Z,24.50
2023-03-22T02:11:18.008Z,24.10
2023-03-22T02:13:53.906Z,23.00
2023-03-22T02:16:21.731Z,23.70
2023-03-22T02:19:01.619Z,24.10
2023-03-22T02:22:15.726Z,25.30
2023-03-22T02:25:12.655Z,24.30
2023-03-22T02:28:37.910Z,25.50
2023-03-22T02:31:30.005Z,24.60
2023-03-22T02:34:10.511Z,24.10
2023-03-22T02:37:12.940Z,23.60
2023-03-22T02:39:59.204Z,24.70
2023-03-22T02:42:50.000Z,23.80
2023-03-22T02:45:39.765Z,26.00
2023-03-22T02:48:17.044Z,26.90
2023-03-22T02:51:10.637Z,25.10
2023-03-22T02:53:43.425Z,26.60
2023-03-22T02:56:56.520Z,26.70
2023-03-22T02:59:27.016Z,26.70
2023-03-22T03:01:58.998Z,26.80
2023-03-22T03:04:35.623Z,28.20
2023-03-22T03:07:09.914Z,27.80
2023-03-22T03:09:40.315Z,29.40
2023-03-22T03:12:19.387Z,29.00
2023-03-22T03:14:48.122Z,29.70
2023-03-22T03:17:53.490Z,28.90
2023-03-22T03:20:30.448Z,28.40
2023-03-22T03:23:29.196Z,28.80
2023-03-22T03:25:59.161Z,28.40
2023-03-22T03:28:39.856Z,28.80
2023-03-22T03:31:16.957Z,28.40
2023-03-22T03:33:55.844Z,29.80
2023-03-22T03:36:26.187Z,28.00
2023-03-22T03:38:55.302Z,28.30
2023-03-22T03:41:28.198Z,30.70
2023-03-22T03:43:58.487Z,28.40
2023-03-22T03:46:27.856Z,28.60
2023-03-22T03:48:58.062Z,29.40
2023-03-22T03:51:28.042Z,29.60
2023-03-22T03:53:56.022Z,32.00
2023-03-22T03:56:24.080Z,30.90
2023-03-22T03:58:52.078Z,32.40
2023-03-22T04:01:20.787Z,31.50
2023-03-22T04:03:50.817Z,30.40
2023-03-22T04:06:18.931Z,33.40
2023-03-22T04:08:53.564Z,31.90
2023-03-22T04:11:21.476Z,29.10
2023-03-22T04:13:49.956Z,30.10
2023-03-22T04:16:17.981Z,28.60
2023-03-22T04:18:46.229Z,29.60
2023-03-22T04:21:16.642Z,31.30
2023-03-22T04:23:46.862Z,29.20
2023-03-22T04:26:15.380Z,29.20
2023-03-22T04:28:45.499Z,29.90
2023-03-22T04:31:13.534Z,29.60
2023-03-22T04:33:41.514Z,28.30
2023-03-22T04:36:17.389Z,29.70
2023-03-22T04:38:45.306Z,26.80
2023-03-22T04:41:14.582Z,28.10
2023-03-22T04:43:47.890Z,26.10
2023-03-22T04:46:18.063Z,27.50
2023-03-22T04:48:45.975Z,25.90
2023-03-22T04:51:13.836Z,27.10
2023-03-22T04:53:41.798Z,26.00
2023-03-22T04:56:12.826Z,26.30
2023-03-22T04:58:42.535Z,25.50
2023-03-22T05:01:12.549Z,23.60
2023-03-22T05:03:41.323Z,24.60
2023-03-22T05:06:10.457Z,26.10
2023-03-22T05:08:38.464Z,25.30
2023-03-22T05:11:17.445Z,26.80
2023-03-22T05:13:45.713Z,27.40
2023-03-22T05:16:16.782Z,25.80
2023-03-22T05:18:45.860Z,26.60
2023-03-22T05:21:15.636Z,26.00
2023-03-22T05:23:46.388Z,25.80
2023-03-22T05:26:20.604Z,28.10
2023-03-22T05:28:51.675Z,27.80
2023-03-22T05:31:22.081Z,28.00
2023-03-22T05:33:51.826Z,30.50
2023-03-22T05:36:21.534Z,29.40
2023-03-22T05:38:49.914Z,29.40
2023-03-22T05:41:17.866Z,29.00
2023-03-22T05:43:45.769Z,27.00
2023-03-22T05:46:13.905Z,28.20
2023-03-22T05:48:41.825Z,28.30
2023-03-22T05:51:17.576Z,28.20
2023-03-22T05:53:47.541Z,26.80
2023-03-22T05:56:15.645Z,27.60
2023-03-22T05:58:43.638Z,27.60
2023-03-22T06:01:16.512Z,28.40
2023-03-22T06:03:44.348Z,28.10
2023-03-22T06:06:12.312Z,28.70
2023-03-22T06:08:40.511Z,29.90
2023-03-22T06:11:09.236Z,28.10
2023-03-22T06:13:37.571Z,28.20
2023-03-22T06:16:06.363Z,27.80
2023-03-22T06:18:34.291Z,28.70
2023-03-22T06:21:02.412Z,28.00
2023-03-22T06:23:30.329Z,26.50
2023-03-22T06:25:58.212Z,25.70
2023-03-22T06:28:29.978Z,25.60
2023-03-22T06:30:58.038Z,24.50
2023-03-22T06:33:26.031Z,24.80
2023-03-22T06:35:54.425Z,25.20
2023-03-22T06:38:22.365Z,27.50
2023-03-22T06:40:50.315Z,26.30
2023-03-22T06:43:18.223Z,27.50
2023-03-22T06:45:47.135Z,26.50
2023-03-22T06:48:15.702Z,25.90
2023-03-22T06:50:45.011Z,25.40
2023-03-22T06:53:13.130Z,26.00
2023-03-22T06:55:40.963Z,24.10
2023-03-22T06:58:08.918Z,23.20
2023-03-22T07:00:38.812Z,21.10
2023-03-22T07:03:06.953Z,20.20
2023-03-22T07:05:34.809Z,19.90
2023-03-22T07:08:02.778Z,21.80
2023-03-22T07:10:30.853Z,18.90
2023-03-22T07:12:58.816Z,17.00
2023-03-22T07:15:26.825Z,17.80
2023-03-22T07:17:54.645Z,15.30
2023-03-22T07:20:22.518Z,18.60
2023-03-22T07:22:51.427Z,18.10
2023-03-22T07:25:20.038Z,17.80
2023-03-22T07:27:47.930Z,17.20
2023-03-22T07:30:15.806Z,18.70
2023-03-22T07:32:43.877Z,21.20
2023-03-22T07:35:11.897Z,20.30
2023-03-22T07:37:39.910Z,21.00
2023-03-22T07:40:08.714Z,22.60
2023-03-22T07:42:36.692Z,25.60
2023-03-22T07:45:05.865Z,24.00
2023-03-22T07:47:40.866Z,29.60
2023-03-22T07:50:12.596Z,31.20
2023-03-22T07:52:41.966Z,29.00
2023-03-22T07:55:12.421Z,29.90
2023-03-22T07:57:40.838Z,35.40
2023-03-22T08:00:12.636Z,32.80
2023-03-22T08:02:40.755Z,32.80
2023-03-22T08:05:09.043Z,30.50
2023-03-22T08:07:37.582Z,31.80
2023-03-22T08:10:06.425Z,28.00
2023-03-22T08:12:34.800Z,26.90
2023-03-22T08:15:03.180Z,23.40
2023-03-22T08:17:31.226Z,22.30
2023-03-22T08:19:59.487Z,18.90
2023-03-22T08:22:30.220Z,19.40
2023-03-22T08:24:58.080Z,19.20
2023-03-22T08:27:26.343Z,18.50
2023-03-22T08:29:54.294Z,16.80
2023-03-22T08:32:22.180Z,16.80
2023-03-22T08:34:51.278Z,18.90
2023-03-22T08:37:22.687Z,17.50
2023-03-22T08:39:50.687Z,16.80
2023-03-22T08:42:18.563Z,18.10
2023-03-22T08:44:47.095Z,17.30
2023-03-22T08:47:14.954Z,16.70
2023-03-22T08:49:43.385Z,17.30
2023-03-22T08:52:11.572Z,17.50
2023-03-22T08:54:39.612Z,17.70
2023-03-22T08:57:09.568Z,16.20
2023-03-22T08:59:37.470Z,17.10
2023-03-22T09:02:05.899Z,14.80
2023-03-22T09:04:33.981Z,14.40
2023-03-22T09:07:01.916Z,13.10
2023-03-22T09:09:30.132Z,13.30
2023-03-22T09:11:58.200Z,13.80
2023-03-22T09:14:26.119Z,12.90
2023-03-22T09:16:54.108Z,12.30
2023-03-22T09:19:22.639Z,10.80
2023-03-22T09:21:50.540Z,11.40
2023-03-22T09:24:18.852Z,11.40
2023-03-22T09:26:47.303Z,10.00
2023-03-22T09:29:15.457Z,10.10
2023-03-22T09:31:44.633Z,9.70
2023-03-22T09:34:13.530Z,9.40
2023-03-22T09:36:41.379Z,9.20
2023-03-22T09:39:10.166Z,8.70
2023-03-22T09:41:46.539Z,9.40
2023-03-22T09:44:22.470Z,9.10
2023-03-22T09:46:53.891Z,7.80
2023-03-22T09:49:29.322Z,8.00
2023-03-22T09:51:58.716Z,7.50
2023-03-22T09:54:34.037Z,7.30
2023-03-22T09:57:29.976Z,6.90
2023-03-22T10:00:12.563Z,7.20
2023-03-22T10:02:45.828Z,6.60
2023-03-22T10:05:25.146Z,6.10
2023-03-22T10:08:26.326Z,6.20
2023-03-22T10:10:54.548Z,5.80
2023-03-22T10:14:05.128Z,6.00
2023-03-22T10:16:35.839Z,5.40
2023-03-22T10:19:13.125Z,5.30
2023-03-22T10:21:41.903Z,5.90
2023-03-22T10:24:16.581Z,5.30
2023-03-22T10:26:49.316Z,5.00
2023-03-22T10:29:27.424Z,5.50
2023-03-22T10:31:55.727Z,5.40
2023-03-22T10:34:33.656Z,5.30
2023-03-22T10:37:06.461Z,5.20
2023-03-22T10:39:41.549Z,5.30
2023-03-22T10:42:15.548Z,5.00
2023-03-22T10:45:13.510Z,5.20
2023-03-22T10:47:48.837Z,5.50
2023-03-22T10:50:28.566Z,5.00
2023-03-22T10:53:22.290Z,5.00
2023-03-22T10:55:50.372Z,5.00
2023-03-22T10:58:21.065Z,5.30
2023-03-22T11:00:52.560Z,5.20
2023-03-22T11:03:40.745Z,5.30
2023-03-22T11:06:27.270Z,5.40
2023-03-22T11:08:59.470Z,5.50
2023-03-22T11:11:34.912Z,5.80
2023-03-22T11:14:13.379Z,5.30
2023-03-22T11:17:02.191Z,5.90
2023-03-22T11:19:39.282Z,5.90
2023-03-22T11:22:36.721Z,5.50
2023-03-22T11:25:30.852Z,5.40
2023-03-22T11:30:34.584Z,5.70
2023-03-22T11:33:25.048Z,5.50
2023-03-22T11:36:01.740Z,5.50
2023-03-22T11:38:37.025Z,5.40
2023-03-22T11:41:09.385Z,5.40
2023-03-22T11:43:44.143Z,5.20
2023-03-22T11:46:12.577Z,5.60
2023-03-22T11:48:42.770Z,5.90
2023-03-22T11:51:13.501Z,5.70
2023-03-22T11:53:48.880Z,5.50
2023-03-22T11:56:22.052Z,6.00
2023-03-22T11:59:05.047Z,5.90
2023-03-22T12:01:38.921Z,5.70
2023-03-22T12:04:13.780Z,5.70
2023-03-22T12:06:43.144Z,5.50
2023-03-22T12:09:19.203Z,5.30
2023-03-22T12:11:51.649Z,5.90
2023-03-22T12:14:26.017Z,4.80
2023-03-22T12:17:24.839Z,5.60
2023-03-22T12:20:08.843Z,5.40
2023-03-22T12:22:42.206Z,5.40
2023-03-22T12:25:17.094Z,5.60
2023-03-22T12:27:48.623Z,5.80
2023-03-22T12:30:28.512Z,4.90
2023-03-22T12:33:16.736Z,4.50
2023-03-22T12:35:46.182Z,4.90
2023-03-22T12:38:54.947Z,5.10
2023-03-22T12:41:37.660Z,4.90
2023-03-22T12:44:18.563Z,4.40
2023-03-22T12:46:56.007Z,4.90
2023-03-22T12:49:43.247Z,4.70
2023-03-22T12:52:19.604Z,4.40
2023-03-22T12:54:50.676Z,4.70
2023-03-22T12:57:19.327Z,4.70
2023-03-22T12:59:51.156Z,4.90
2023-03-22T13:02:27.464Z,4.80
2023-03-22T13:05:00.912Z,4.60
2023-03-22T13:07:32.023Z,5.10
2023-03-22T13:10:01.999Z,4.50
2023-03-22T13:12:33.144Z,4.50
2023-03-22T13:15:28.528Z,4.10
2023-03-22T13:17:59.816Z,4.80
2023-03-22T13:20:34.123Z,4.20
2023-03-22T13:23:10.116Z,4.20
2023-03-22T13:25:39.954Z,4.30
2023-03-22T13:28:26.128Z,4.40
2023-03-22T13:30:57.381Z,4.40
2023-03-22T13:33:31.523Z,4.30
2023-03-22T13:36:23.054Z,4.10
2023-03-22T13:39:05.096Z,4.30
2023-03-22T13:41:34.858Z,4.40
2023-03-22T13:44:21.128Z,4.60
2023-03-22T13:46:57.320Z,4.10
2023-03-22T13:49:46.443Z,4.10
2023-03-22T13:52:35.818Z,4.50
2023-03-22T13:55:04.257Z,4.30
2023-03-22T13:57:44.159Z,4.40
2023-03-22T14:00:40.838Z,4.20
2023-03-22T14:03:22.689Z,4.10
2023-03-22T14:05:59.377Z,4.30
2023-03-22T14:08:30.373Z,4.10
2023-03-22T14:11:10.281Z,4.20
2023-03-22T14:13:49.171Z,4.20
2023-03-22T14:16:33.038Z,4.30
2023-03-22T14:19:02.741Z,4.30
2023-03-22T14:21:38.653Z,4.20
